sensor_id;sensor_type;location;lat;lon;timestamp;P1;durP1;ratioP1;P2;durP2;ratioP2
41263;SDS011;26998;48.714;9.414;2023-07-20T00:01:34;4.38;;;2.28;;
41263;SDS011;26998;48.714;9.414;2023-07-20T00:04:01;3.97;;;2.03;;
41263;SDS011;26998;48.714;9.414;2023-07-20T00:06:28;3.22;;;2.13;;
41263;SDS011;26998;48.714;9.414;2023-07-20T00:08:55;4.03;;;2.30;;
41263;SDS011;26998;48.714;9.414;2023-07-20T00:11:25;5.13;;;2.65;;
41263;SDS011;26998;48.714;9.414;2023-07-20T00:13:53;3.95;;;2.35;;
41263;SDS011;26998;48.714;9.414;2023-07-20T00:16:19;3.78;;;2.42;;
41263;SDS011;26998;48.714;9.414;2023-07-20T00:18:47;3.20;;;2.20;;
41263;SDS011;26998;48.714;9.414;2023-07-20T00:21:13;3.83;;;1.88;;
41263;SDS011;26998;48.714;9.414;2023-07-20T00:23:40;10.23;;;2.50;;
41263;SDS011;26998;48.714;9.414;2023-07-20T00:26:06;6.22;;;2.58;;
41263;SDS011;26998;48.714;9.414;2023-07-20T00:28:33;7.53;;;3.80;;
41263;SDS011;26998;48.714;9.414;2023-07-20T00:30:59;5.22;;;3.30;;
41263;SDS011;26998;48.714;9.414;2023-07-20T00:33:26;3.33;;;2.60;;
41263;SDS011;26998;48.714;9.414;2023-07-20T00:35:53;4.38;;;3.00;;
41263;SDS011;26998;48.714;9.414;2023-07-20T00:38:19;4.80;;;3.05;;
41263;SDS011;26998;48.714;9.414;2023-07-20T00:40:46;7.43;;;2.47;;
41263;SDS011;26998;48.714;9.414;2023-07-20T00:43:13;4.50;;;2.60;;
41263;SDS011;26998;48.714;9.414;2023-07-20T00:45:39;7.05;;;2.65;;
41263;SDS011;26998;48.714;9.414;2023-07-20T00:48:06;3.67;;;2.25;;
41263;SDS011;26998;48.714;9.414;2023-07-20T00:50:33;10.70;;;2.65;;
41263;SDS011;26998;48.714;9.414;2023-07-20T00:53:00;4.45;;;2.03;;
41263;SDS011;26998;48.714;9.414;2023-07-20T00:55:30;3.47;;;2.53;;
41263;SDS011;26998;48.714;9.414;2023-07-20T00:57:57;5.90;;;2.30;;
41263;SDS011;26998;48.714;9.414;2023-07-20T01:00:23;2.80;;;2.20;;
41263;SDS011;26998;48.714;9.414;2023-07-20T01:02:50;5.03;;;2.40;;
41263;SDS011;26998;48.714;9.414;2023-07-20T01:05:18;5.05;;;2.40;;
41263;SDS011;26998;48.714;9.414;2023-07-20T01:07:52;4.05;;;2.42;;
41263;SDS011;26998;48.714;9.414;2023-07-20T01:10:25;2.60;;;1.90;;
41263;SDS011;26998;48.714;9.414;2023-07-20T01:13:22;5.93;;;2.35;;
41263;SDS011;26998;48.714;9.414;2023-07-20T01:15:49;2.97;;;2.20;;
41263;SDS011;26998;48.714;9.414;2023-07-20T01:18:19;3.10;;;2.10;;
41263;SDS011;26998;48.714;9.414;2023-07-20T01:20:46;3.05;;;2.20;;
41263;SDS011;26998;48.714;9.414;2023-07-20T01:23:19;2.83;;;2.05;;
41263;SDS011;26998;48.714;9.414;2023-07-20T01:26:02;3.92;;;1.92;;
41263;SDS011;26998;48.714;9.414;2023-07-20T01:31:28;7.97;;;2.33;;
41263;SDS011;26998;48.714;9.414;2023-07-20T01:33:58;6.10;;;2.60;;
41263;SDS011;26998;48.714;9.414;2023-07-20T01:36:29;4.37;;;2.20;;
41263;SDS011;26998;48.714;9.414;2023-07-20T01:38:59;8.20;;;4.43;;
41263;SDS011;26998;48.714;9.414;2023-07-20T01:41:26;9.23;;;4.93;;
41263;SDS011;26998;48.714;9.414;2023-07-20T01:43:53;6.15;;;3.90;;
41263;SDS011;26998;48.714;9.414;2023-07-20T01:46:23;5.38;;;3.80;;
41263;SDS011;26998;48.714;9.414;2023-07-20T01:48:50;3.63;;;2.47;;
41263;SDS011;26998;48.714;9.414;2023-07-20T01:51:18;2.35;;;2.00;;
41263;SDS011;26998;48.714;9.414;2023-07-20T01:53:44;5.15;;;2.42;;
41263;SDS011;26998;48.714;9.414;2023-07-20T01:56:11;4.47;;;2.33;;
41263;SDS011;26998;48.714;9.414;2023-07-20T01:58:37;2.92;;;2.00;;
41263;SDS011;26998;48.714;9.414;2023-07-20T02:01:04;4.13;;;2.15;;
41263;SDS011;26998;48.714;9.414;2023-07-20T02:03:31;4.53;;;2.60;;
41263;SDS011;26998;48.714;9.414;2023-07-20T02:05:57;5.47;;;2.40;;
41263;SDS011;26998;48.714;9.414;2023-07-20T02:08:24;3.05;;;2.38;;
41263;SDS011;26998;48.714;9.414;2023-07-20T02:10:51;3.58;;;2.50;;
41263;SDS011;26998;48.714;9.414;2023-07-20T02:13:18;4.60;;;2.60;;
41263;SDS011;26998;48.714;9.414;2023-07-20T02:15:46;3.95;;;2.40;;
41263;SDS011;26998;48.714;9.414;2023-07-20T02:18:12;5.10;;;2.85;;
41263;SDS011;26998;48.714;9.414;2023-07-20T02:20:40;5.28;;;2.63;;
41263;SDS011;26998;48.714;9.414;2023-07-20T02:23:07;3.60;;;2.40;;
41263;SDS011;26998;48.714;9.414;2023-07-20T02:25:33;5.28;;;2.78;;
41263;SDS011;26998;48.714;9.414;2023-07-20T02:28:00;4.82;;;2.53;;
41263;SDS011;26998;48.714;9.414;2023-07-20T02:30:26;3.75;;;2.28;;
41263;SDS011;26998;48.714;9.414;2023-07-20T02:32:53;4.97;;;2.30;;
41263;SDS011;26998;48.714;9.414;2023-07-20T02:35:19;6.38;;;3.20;;
41263;SDS011;26998;48.714;9.414;2023-07-20T02:37:46;7.30;;;2.80;;
41263;SDS011;26998;48.714;9.414;2023-07-20T02:40:12;4.57;;;2.88;;
41263;SDS011;26998;48.714;9.414;2023-07-20T02:42:39;6.15;;;3.13;;
41263;SDS011;26998;48.714;9.414;2023-07-20T02:45:06;5.43;;;2.92;;
41263;SDS011;26998;48.714;9.414;2023-07-20T02:47:33;7.43;;;2.95;;
41263;SDS011;26998;48.714;9.414;2023-07-20T02:50:00;5.88;;;2.22;;
41263;SDS011;26998;48.714;9.414;2023-07-20T02:52:26;5.05;;;2.35;;
41263;SDS011;26998;48.714;9.414;2023-07-20T02:54:52;5.22;;;2.60;;
41263;SDS011;26998;48.714;9.414;2023-07-20T02:57:19;4.88;;;2.80;;
41263;SDS011;26998;48.714;9.414;2023-07-20T02:59:45;2.45;;;2.08;;
41263;SDS011;26998;48.714;9.414;2023-07-20T03:02:12;5.97;;;2.58;;
41263;SDS011;26998;48.714;9.414;2023-07-20T03:04:38;3.85;;;2.78;;
41263;SDS011;26998;48.714;9.414;2023-07-20T03:07:05;3.55;;;2.10;;
41263;SDS011;26998;48.714;9.414;2023-07-20T03:09:32;3.45;;;2.42;;
41263;SDS011;26998;48.714;9.414;2023-07-20T03:11:59;3.45;;;2.72;;
41263;SDS011;26998;48.714;9.414;2023-07-20T03:14:26;5.65;;;3.10;;
41263;SDS011;26998;48.714;9.414;2023-07-20T03:16:52;5.70;;;3.40;;
41263;SDS011;26998;48.714;9.414;2023-07-20T03:19:19;4.10;;;3.00;;
41263;SDS011;26998;48.714;9.414;2023-07-20T03:21:45;2.95;;;2.10;;
41263;SDS011;26998;48.714;9.414;2023-07-20T03:24:12;4.93;;;2.67;;
41263;SDS011;26998;48.714;9.414;2023-07-20T03:26:38;6.40;;;2.80;;
41263;SDS011;26998;48.714;9.414;2023-07-20T03:29:05;4.72;;;3.33;;
41263;SDS011;26998;48.714;9.414;2023-07-20T03:31:32;4.68;;;2.80;;
41263;SDS011;26998;48.714;9.414;2023-07-20T03:33:58;6.35;;;2.78;;
41263;SDS011;26998;48.714;9.414;2023-07-20T03:36:25;9.30;;;2.65;;
41263;SDS011;26998;48.714;9.414;2023-07-20T03:38:51;8.05;;;2.78;;
41263;SDS011;26998;48.714;9.414;2023-07-20T03:41:18;4.13;;;2.55;;
41263;SDS011;26998;48.714;9.414;2023-07-20T03:43:44;3.33;;;2.42;;
41263;SDS011;26998;48.714;9.414;2023-07-20T03:46:11;4.45;;;2.70;;
41263;SDS011;26998;48.714;9.414;2023-07-20T03:48:38;3.00;;;2.30;;
41263;SDS011;26998;48.714;9.414;2023-07-20T03:51:04;6.03;;;2.65;;
41263;SDS011;26998;48.714;9.414;2023-07-20T03:53:31;5.18;;;3.05;;
41263;SDS011;26998;48.714;9.414;2023-07-20T03:55:58;4.80;;;2.83;;
41263;SDS011;26998;48.714;9.414;2023-07-20T03:58:24;4.88;;;3.28;;
41263;SDS011;26998;48.714;9.414;2023-07-20T04:00:51;4.72;;;2.83;;
41263;SDS011;26998;48.714;9.414;2023-07-20T04:03:18;3.83;;;2.95;;
41263;SDS011;26998;48.714;9.414;2023-07-20T04:05:46;6.70;;;3.35;;
41263;SDS011;26998;48.714;9.414;2023-07-20T04:08:12;4.78;;;3.00;;
41263;SDS011;26998;48.714;9.414;2023-07-20T04:10:39;4.40;;;3.03;;
41263;SDS011;26998;48.714;9.414;2023-07-20T04:15:36;4.40;;;2.63;;
41263;SDS011;26998;48.714;9.414;2023-07-20T04:18:03;3.53;;;2.50;;
41263;SDS011;26998;48.714;9.414;2023-07-20T04:20:30;4.55;;;2.67;;
41263;SDS011;26998;48.714;9.414;2023-07-20T04:22:56;4.45;;;2.65;;
41263;SDS011;26998;48.714;9.414;2023-07-20T04:25:23;4.05;;;2.65;;
41263;SDS011;26998;48.714;9.414;2023-07-20T04:27:50;3.42;;;2.78;;
41263;SDS011;26998;48.714;9.414;2023-07-20T04:30:16;3.70;;;2.30;;
41263;SDS011;26998;48.714;9.414;2023-07-20T04:32:44;5.28;;;2.53;;
41263;SDS011;26998;48.714;9.414;2023-07-20T04:35:10;3.53;;;2.33;;
41263;SDS011;26998;48.714;9.414;2023-07-20T04:37:37;2.88;;;2.38;;
41263;SDS011;26998;48.714;9.414;2023-07-20T04:40:03;2.78;;;2.33;;
41263;SDS011;26998;48.714;9.414;2023-07-20T04:42:30;4.07;;;3.08;;
41263;SDS011;26998;48.714;9.414;2023-07-20T04:44:57;7.68;;;2.72;;
41263;SDS011;26998;48.714;9.414;2023-07-20T04:47:24;6.07;;;3.15;;
41263;SDS011;26998;48.714;9.414;2023-07-20T04:49:50;4.03;;;2.92;;
41263;SDS011;26998;48.714;9.414;2023-07-20T04:52:17;4.35;;;2.47;;
41263;SDS011;26998;48.714;9.414;2023-07-20T04:54:43;4.63;;;2.85;;
41263;SDS011;26998;48.714;9.414;2023-07-20T04:57:10;4.50;;;3.08;;
41263;SDS011;26998;48.714;9.414;2023-07-20T04:59:38;3.55;;;2.67;;
41263;SDS011;26998;48.714;9.414;2023-07-20T05:02:04;4.43;;;2.97;;
41263;SDS011;26998;48.714;9.414;2023-07-20T05:04:31;4.80;;;2.50;;
41263;SDS011;26998;48.714;9.414;2023-07-20T05:07:04;4.70;;;2.60;;
41263;SDS011;26998;48.714;9.414;2023-07-20T05:09:31;3.65;;;3.35;;
41263;SDS011;26998;48.714;9.414;2023-07-20T05:11:57;5.05;;;3.40;;
41263;SDS011;26998;48.714;9.414;2023-07-20T05:14:24;5.75;;;3.40;;
41263;SDS011;26998;48.714;9.414;2023-07-20T05:16:51;6.80;;;3.42;;
41263;SDS011;26998;48.714;9.414;2023-07-20T05:19:17;4.93;;;2.85;;
41263;SDS011;26998;48.714;9.414;2023-07-20T05:21:44;7.78;;;3.30;;
41263;SDS011;26998;48.714;9.414;2023-07-20T05:24:11;5.97;;;3.08;;
41263;SDS011;26998;48.714;9.414;2023-07-20T05:26:37;7.22;;;3.28;;
41263;SDS011;26998;48.714;9.414;2023-07-20T05:29:04;8.43;;;3.47;;
41263;SDS011;26998;48.714;9.414;2023-07-20T05:31:31;7.30;;;3.17;;
41263;SDS011;26998;48.714;9.414;2023-07-20T05:33:57;4.53;;;3.33;;
41263;SDS011;26998;48.714;9.414;2023-07-20T05:36:24;5.50;;;2.70;;
41263;SDS011;26998;48.714;9.414;2023-07-20T05:38:50;6.18;;;2.90;;
41263;SDS011;26998;48.714;9.414;2023-07-20T05:41:17;8.52;;;3.30;;
41263;SDS011;26998;48.714;9.414;2023-07-20T05:43:44;11.40;;;3.38;;
41263;SDS011;26998;48.714;9.414;2023-07-20T05:46:10;6.85;;;3.35;;
41263;SDS011;26998;48.714;9.414;2023-07-20T05:48:37;6.78;;;3.40;;
41263;SDS011;26998;48.714;9.414;2023-07-20T05:51:03;3.92;;;3.05;;
41263;SDS011;26998;48.714;9.414;2023-07-20T05:53:30;4.60;;;3.42;;
41263;SDS011;26998;48.714;9.414;2023-07-20T05:55:57;4.95;;;2.97;;
41263;SDS011;26998;48.714;9.414;2023-07-20T05:58:23;4.50;;;3.10;;
41263;SDS011;26998;48.714;9.414;2023-07-20T06:00:50;7.32;;;3.17;;
41263;SDS011;26998;48.714;9.414;2023-07-20T06:03:18;5.47;;;3.05;;
41263;SDS011;26998;48.714;9.414;2023-07-20T06:05:45;5.68;;;3.60;;
41263;SDS011;26998;48.714;9.414;2023-07-20T06:08:11;7.70;;;3.08;;
41263;SDS011;26998;48.714;9.414;2023-07-20T06:10:38;3.28;;;2.28;;
41263;SDS011;26998;48.714;9.414;2023-07-20T06:13:04;7.28;;;3.10;;
41263;SDS011;26998;48.714;9.414;2023-07-20T06:15:32;6.88;;;3.03;;
41263;SDS011;26998;48.714;9.414;2023-07-20T06:18:01;5.65;;;2.85;;
41263;SDS011;26998;48.714;9.414;2023-07-20T06:20:30;6.95;;;2.90;;
41263;SDS011;26998;48.714;9.414;2023-07-20T06:22:56;3.72;;;2.58;;
41263;SDS011;26998;48.714;9.414;2023-07-20T06:25:23;4.95;;;2.50;;
41263;SDS011;26998;48.714;9.414;2023-07-20T06:27:49;7.03;;;3.20;;
41263;SDS011;26998;48.714;9.414;2023-07-20T06:30:17;7.80;;;3.25;;
41263;SDS011;26998;48.714;9.414;2023-07-20T06:32:44;4.82;;;3.20;;
41263;SDS011;26998;48.714;9.414;2023-07-20T06:35:10;11.18;;;3.70;;
41263;SDS011;26998;48.714;9.414;2023-07-20T06:37:37;7.00;;;3.28;;
41263;SDS011;26998;48.714;9.414;2023-07-20T06:40:04;5.18;;;2.80;;
41263;SDS011;26998;48.714;9.414;2023-07-20T06:42:34;7.38;;;2.95;;
41263;SDS011;26998;48.714;9.414;2023-07-20T06:45:04;5.30;;;2.75;;
41263;SDS011;26998;48.714;9.414;2023-07-20T06:47:31;5.15;;;2.97;;
41263;SDS011;26998;48.714;9.414;2023-07-20T06:49:57;5.50;;;2.90;;
41263;SDS011;26998;48.714;9.414;2023-07-20T06:52:24;8.77;;;2.65;;
41263;SDS011;26998;48.714;9.414;2023-07-20T06:54:51;6.03;;;2.88;;
41263;SDS011;26998;48.714;9.414;2023-07-20T06:57:17;4.00;;;2.50;;
41263;SDS011;26998;48.714;9.414;2023-07-20T06:59:45;5.20;;;2.33;;
41263;SDS011;26998;48.714;9.414;2023-07-20T07:02:11;4.47;;;2.40;;
41263;SDS011;26998;48.714;9.414;2023-07-20T07:04:41;4.28;;;2.83;;
41263;SDS011;26998;48.714;9.414;2023-07-20T07:07:08;6.47;;;2.55;;
41263;SDS011;26998;48.714;9.414;2023-07-20T07:09:35;6.15;;;2.45;;
41263;SDS011;26998;48.714;9.414;2023-07-20T07:12:03;4.72;;;2.42;;
41263;SDS011;26998;48.714;9.414;2023-07-20T07:14:30;7.32;;;2.70;;
41263;SDS011;26998;48.714;9.414;2023-07-20T07:16:58;3.60;;;2.45;;
41263;SDS011;26998;48.714;9.414;2023-07-20T07:19:30;7.00;;;3.10;;
41263;SDS011;26998;48.714;9.414;2023-07-20T07:21:56;4.57;;;2.55;;
41263;SDS011;26998;48.714;9.414;2023-07-20T07:24:26;6.38;;;2.50;;
41263;SDS011;26998;48.714;9.414;2023-07-20T07:26:53;4.90;;;2.67;;
41263;SDS011;26998;48.714;9.414;2023-07-20T07:29:19;6.68;;;2.50;;
41263;SDS011;26998;48.714;9.414;2023-07-20T07:31:46;2.63;;;2.15;;
41263;SDS011;26998;48.714;9.414;2023-07-20T07:34:12;4.43;;;2.40;;
41263;SDS011;26998;48.714;9.414;2023-07-20T07:36:39;6.03;;;2.90;;
41263;SDS011;26998;48.714;9.414;2023-07-20T07:39:05;4.25;;;2.28;;
41263;SDS011;26998;48.714;9.414;2023-07-20T07:41:35;5.65;;;2.50;;
41263;SDS011;26998;48.714;9.414;2023-07-20T07:44:02;3.20;;;2.17;;
41263;SDS011;26998;48.714;9.414;2023-07-20T07:46:28;3.97;;;2.10;;
41263;SDS011;26998;48.714;9.414;2023-07-20T07:48:55;3.78;;;2.30;;
41263;SDS011;26998;48.714;9.414;2023-07-20T07:51:21;5.22;;;2.20;;
41263;SDS011;26998;48.714;9.414;2023-07-20T07:53:48;6.47;;;2.47;;
41263;SDS011;26998;48.714;9.414;2023-07-20T07:56:14;4.05;;;2.22;;
41263;SDS011;26998;48.714;9.414;2023-07-20T07:58:41;6.07;;;2.80;;
41263;SDS011;26998;48.714;9.414;2023-07-20T08:01:07;4.50;;;2.45;;
41263;SDS011;26998;48.714;9.414;2023-07-20T08:03:34;6.00;;;2.53;;
41263;SDS011;26998;48.714;9.414;2023-07-20T08:06:01;3.83;;;2.40;;
41263;SDS011;26998;48.714;9.414;2023-07-20T08:08:27;4.68;;;2.53;;
41263;SDS011;26998;48.714;9.414;2023-07-20T08:10:54;6.07;;;2.65;;
41263;SDS011;26998;48.714;9.414;2023-07-20T08:13:20;4.00;;;2.45;;
41263;SDS011;26998;48.714;9.414;2023-07-20T08:15:49;5.72;;;2.10;;
41263;SDS011;26998;48.714;9.414;2023-07-20T08:20:44;4.20;;;2.03;;
41263;SDS011;26998;48.714;9.414;2023-07-20T08:23:12;6.82;;;2.72;;
41263;SDS011;26998;48.714;9.414;2023-07-20T08:25:39;6.35;;;3.13;;
41263;SDS011;26998;48.714;9.414;2023-07-20T08:28:06;5.50;;;2.28;;
41263;SDS011;26998;48.714;9.414;2023-07-20T08:30:42;4.53;;;2.33;;
41263;SDS011;26998;48.714;9.414;2023-07-20T08:33:10;2.63;;;2.20;;
41263;SDS011;26998;48.714;9.414;2023-07-20T08:35:39;3.25;;;2.28;;
41263;SDS011;26998;48.714;9.414;2023-07-20T08:38:06;3.30;;;2.20;;
41263;SDS011;26998;48.714;9.414;2023-07-20T08:40:39;4.50;;;2.33;;
41263;SDS011;26998;48.714;9.414;2023-07-20T08:43:06;7.80;;;2.53;;
41263;SDS011;26998;48.714;9.414;2023-07-20T08:45:33;6.55;;;3.05;;
41263;SDS011;26998;48.714;9.414;2023-07-20T08:48:00;5.15;;;3.20;;
41263;SDS011;26998;48.714;9.414;2023-07-20T08:50:28;5.68;;;2.33;;
41263;SDS011;26998;48.714;9.414;2023-07-20T08:52:57;4.47;;;2.40;;
41263;SDS011;26998;48.714;9.414;2023-07-20T08:55:25;3.88;;;2.28;;
41263;SDS011;26998;48.714;9.414;2023-07-20T08:57:56;4.28;;;2.78;;
41263;SDS011;26998;48.714;9.414;2023-07-20T09:00:26;4.30;;;2.20;;
41263;SDS011;26998;48.714;9.414;2023-07-20T09:02:53;7.88;;;2.75;;
41263;SDS011;26998;48.714;9.414;2023-07-20T09:05:21;7.95;;;2.65;;
41263;SDS011;26998;48.714;9.414;2023-07-20T09:07:52;4.38;;;2.40;;
41263;SDS011;26998;48.714;9.414;2023-07-20T09:10:22;7.47;;;2.50;;
41263;SDS011;26998;48.714;9.414;2023-07-20T09:12:50;3.38;;;2.05;;
41263;SDS011;26998;48.714;9.414;2023-07-20T09:15:17;4.30;;;2.38;;
41263;SDS011;26998;48.714;9.414;2023-07-20T09:17:49;4.43;;;2.42;;
41263;SDS011;26998;48.714;9.414;2023-07-20T09:20:17;4.22;;;2.40;;
41263;SDS011;26998;48.714;9.414;2023-07-20T09:22:47;3.75;;;2.00;;
41263;SDS011;26998;48.714;9.414;2023-07-20T09:25:17;8.63;;;2.22;;
41263;SDS011;26998;48.714;9.414;2023-07-20T09:27:47;5.35;;;2.28;;
41263;SDS011;26998;48.714;9.414;2023-07-20T09:30:17;6.45;;;2.97;;
41263;SDS011;26998;48.714;9.414;2023-07-20T09:32:48;8.20;;;2.50;;
41263;SDS011;26998;48.714;9.414;2023-07-20T09:35:19;3.45;;;2.38;;
41263;SDS011;26998;48.714;9.414;2023-07-20T09:37:59;6.03;;;2.55;;
41263;SDS011;26998;48.714;9.414;2023-07-20T09:40:29;3.72;;;2.40;;
41263;SDS011;26998;48.714;9.414;2023-07-20T09:42:59;5.40;;;2.67;;
41263;SDS011;26998;48.714;9.414;2023-07-20T09:45:29;8.67;;;2.90;;
41263;SDS011;26998;48.714;9.414;2023-07-20T09:48:24;6.03;;;2.65;;
41263;SDS011;26998;48.714;9.414;2023-07-20T09:50:54;5.55;;;2.38;;
41263;SDS011;26998;48.714;9.414;2023-07-20T09:53:21;10.77;;;3.17;;
41263;SDS011;26998;48.714;9.414;2023-07-20T09:55:50;9.07;;;2.97;;
41263;SDS011;26998;48.714;9.414;2023-07-20T09:58:18;5.78;;;2.50;;
41263;SDS011;26998;48.714;9.414;2023-07-20T10:00:45;3.38;;;2.08;;
41263;SDS011;26998;48.714;9.414;2023-07-20T10:03:18;6.57;;;2.20;;
41263;SDS011;26998;48.714;9.414;2023-07-20T10:05:47;2.90;;;1.85;;
41263;SDS011;26998;48.714;9.414;2023-07-20T10:08:20;3.65;;;2.00;;
41263;SDS011;26998;48.714;9.414;2023-07-20T10:10:54;5.95;;;2.50;;
41263;SDS011;26998;48.714;9.414;2023-07-20T10:13:27;4.53;;;2.17;;
41263;SDS011;26998;48.714;9.414;2023-07-20T10:15:59;9.98;;;2.42;;
41263;SDS011;26998;48.714;9.414;2023-07-20T10:21:04;2.17;;;1.98;;
41263;SDS011;26998;48.714;9.414;2023-07-20T10:23:36;4.85;;;2.03;;
41263;SDS011;26998;48.714;9.414;2023-07-20T10:26:04;4.80;;;2.20;;
41263;SDS011;26998;48.714;9.414;2023-07-20T10:28:31;2.65;;;2.05;;
41263;SDS011;26998;48.714;9.414;2023-07-20T10:30:58;4.82;;;2.22;;
41263;SDS011;26998;48.714;9.414;2023-07-20T10:33:24;3.97;;;2.33;;
41263;SDS011;26998;48.714;9.414;2023-07-20T10:35:57;5.50;;;1.92;;
41263;SDS011;26998;48.714;9.414;2023-07-20T10:41:18;4.60;;;2.50;;
41263;SDS011;26998;48.714;9.414;2023-07-20T10:43:49;6.10;;;2.60;;
41263;SDS011;26998;48.714;9.414;2023-07-20T10:46:17;4.85;;;2.00;;
41263;SDS011;26998;48.714;9.414;2023-07-20T10:49:04;5.25;;;2.20;;
41263;SDS011;26998;48.714;9.414;2023-07-20T10:51:45;4.35;;;2.17;;
41263;SDS011;26998;48.714;9.414;2023-07-20T10:59:50;3.75;;;2.25;;
41263;SDS011;26998;48.714;9.414;2023-07-20T11:02:18;3.17;;;2.00;;
41263;SDS011;26998;48.714;9.414;2023-07-20T11:04:46;5.90;;;2.13;;
41263;SDS011;26998;48.714;9.414;2023-07-20T11:07:17;4.47;;;2.30;;
41263;SDS011;26998;48.714;9.414;2023-07-20T11:10:14;3.58;;;1.98;;
41263;SDS011;26998;48.714;9.414;2023-07-20T11:18:25;2.92;;;1.67;;
41263;SDS011;26998;48.714;9.414;2023-07-20T11:20:52;2.15;;;1.88;;
41263;SDS011;26998;48.714;9.414;2023-07-20T11:23:19;4.28;;;2.00;;
41263;SDS011;26998;48.714;9.414;2023-07-20T11:25:46;5.35;;;2.35;;
41263;SDS011;26998;48.714;9.414;2023-07-20T11:28:13;3.88;;;2.05;;
41263;SDS011;26998;48.714;9.414;2023-07-20T11:30:40;3.78;;;1.75;;
41263;SDS011;26998;48.714;9.414;2023-07-20T11:33:10;2.25;;;1.67;;
41263;SDS011;26998;48.714;9.414;2023-07-20T11:35:46;5.20;;;1.75;;
41263;SDS011;26998;48.714;9.414;2023-07-20T11:38:15;2.65;;;1.73;;
41263;SDS011;26998;48.714;9.414;2023-07-20T11:40:45;2.83;;;1.60;;
41263;SDS011;26998;48.714;9.414;2023-07-20T11:43:13;5.30;;;2.15;;
41263;SDS011;26998;48.714;9.414;2023-07-20T11:45:43;3.45;;;1.52;;
41263;SDS011;26998;48.714;9.414;2023-07-20T11:48:15;2.97;;;1.73;;
41263;SDS011;26998;48.714;9.414;2023-07-20T11:50:43;4.70;;;2.05;;
41263;SDS011;26998;48.714;9.414;2023-07-20T11:53:10;3.92;;;2.28;;
41263;SDS011;26998;48.714;9.414;2023-07-20T11:55:37;2.60;;;1.80;;
41263;SDS011;26998;48.714;9.414;2023-07-20T11:58:06;2.03;;;1.70;;
41263;SDS011;26998;48.714;9.414;2023-07-20T12:00:35;1.92;;;1.55;;
41263;SDS011;26998;48.714;9.414;2023-07-20T12:03:05;2.10;;;1.58;;
41263;SDS011;26998;48.714;9.414;2023-07-20T12:05:32;4.07;;;1.92;;
41263;SDS011;26998;48.714;9.414;2023-07-20T12:08:13;2.22;;;1.80;;
41263;SDS011;26998;48.714;9.414;2023-07-20T12:10:40;9.65;;;3.15;;
41263;SDS011;26998;48.714;9.414;2023-07-20T12:13:06;6.20;;;1.90;;
41263;SDS011;26998;48.714;9.414;2023-07-20T12:15:33;3.55;;;1.60;;
41263;SDS011;26998;48.714;9.414;2023-07-20T12:18:00;2.58;;;1.45;;
41263;SDS011;26998;48.714;9.414;2023-07-20T12:20:29;4.20;;;1.83;;
41263;SDS011;26998;48.714;9.414;2023-07-20T12:23:15;2.47;;;1.60;;
41263;SDS011;26998;48.714;9.414;2023-07-20T12:25:43;2.13;;;1.20;;
41263;SDS011;26998;48.714;9.414;2023-07-20T12:28:11;4.57;;;1.60;;
41263;SDS011;26998;48.714;9.414;2023-07-20T12:30:40;3.10;;;1.30;;
41263;SDS011;26998;48.714;9.414;2023-07-20T12:33:08;3.80;;;1.25;;
41263;SDS011;26998;48.714;9.414;2023-07-20T12:35:35;3.15;;;1.70;;
41263;SDS011;26998;48.714;9.414;2023-07-20T12:38:01;3.95;;;2.03;;
41263;SDS011;26998;48.714;9.414;2023-07-20T12:40:28;4.50;;;2.13;;
41263;SDS011;26998;48.714;9.414;2023-07-20T12:42:55;3.42;;;1.63;;
41263;SDS011;26998;48.714;9.414;2023-07-20T12:45:23;2.50;;;1.40;;
41263;SDS011;26998;48.714;9.414;2023-07-20T12:47:49;4.93;;;2.00;;
41263;SDS011;26998;48.714;9.414;2023-07-20T12:50:16;5.35;;;2.13;;
41263;SDS011;26998;48.714;9.414;2023-07-20T12:52:43;5.63;;;1.63;;
41263;SDS011;26998;48.714;9.414;2023-07-20T12:55:09;6.78;;;1.90;;
41263;SDS011;26998;48.714;9.414;2023-07-20T12:57:37;6.20;;;1.88;;
41263;SDS011;26998;48.714;9.414;2023-07-20T13:00:08;3.65;;;1.92;;
41263;SDS011;26998;48.714;9.414;2023-07-20T13:02:37;4.22;;;1.77;;
41263;SDS011;26998;48.714;9.414;2023-07-20T13:05:04;3.20;;;2.17;;
41263;SDS011;26998;48.714;9.414;2023-07-20T13:07:32;2.45;;;1.65;;
41263;SDS011;26998;48.714;9.414;2023-07-20T13:10:03;5.90;;;2.05;;
41263;SDS011;26998;48.714;9.414;2023-07-20T13:12:31;4.43;;;1.70;;
41263;SDS011;26998;48.714;9.414;2023-07-20T13:14:58;3.10;;;1.52;;
41263;SDS011;26998;48.714;9.414;2023-07-20T13:17:25;4.88;;;2.00;;
41263;SDS011;26998;48.714;9.414;2023-07-20T13:19:52;5.97;;;1.60;;
41263;SDS011;26998;48.714;9.414;2023-07-20T13:22:18;5.75;;;2.00;;
41263;SDS011;26998;48.714;9.414;2023-07-20T13:24:45;3.25;;;1.88;;
41263;SDS011;26998;48.714;9.414;2023-07-20T13:27:11;2.63;;;1.73;;
41263;SDS011;26998;48.714;9.414;2023-07-20T13:29:38;2.67;;;1.38;;
41263;SDS011;26998;48.714;9.414;2023-07-20T13:32:05;1.90;;;1.50;;
41263;SDS011;26998;48.714;9.414;2023-07-20T13:34:33;5.85;;;2.25;;
41263;SDS011;26998;48.714;9.414;2023-07-20T13:37:00;5.68;;;1.83;;
41263;SDS011;26998;48.714;9.414;2023-07-20T13:39:27;2.78;;;1.73;;
41263;SDS011;26998;48.714;9.414;2023-07-20T13:41:54;2.38;;;1.73;;
41263;SDS011;26998;48.714;9.414;2023-07-20T13:44:21;2.92;;;1.60;;
41263;SDS011;26998;48.714;9.414;2023-07-20T13:46:48;2.60;;;1.50;;
41263;SDS011;26998;48.714;9.414;2023-07-20T13:49:15;1.55;;;1.30;;
41263;SDS011;26998;48.714;9.414;2023-07-20T13:51:49;1.70;;;1.60;;
41263;SDS011;26998;48.714;9.414;2023-07-20T13:54:35;2.45;;;1.77;;
41263;SDS011;26998;48.714;9.414;2023-07-20T13:57:02;2.67;;;1.55;;
41263;SDS011;26998;48.714;9.414;2023-07-20T13:59:29;3.50;;;1.50;;
41263;SDS011;26998;48.714;9.414;2023-07-20T14:01:56;4.20;;;1.60;;
41263;SDS011;26998;48.714;9.414;2023-07-20T14:04:26;1.52;;;1.05;;
41263;SDS011;26998;48.714;9.414;2023-07-20T14:06:53;3.30;;;1.90;;
41263;SDS011;26998;48.714;9.414;2023-07-20T14:09:19;2.30;;;1.27;;
41263;SDS011;26998;48.714;9.414;2023-07-20T14:11:46;3.78;;;1.70;;
41263;SDS011;26998;48.714;9.414;2023-07-20T14:14:16;6.20;;;1.80;;
41263;SDS011;26998;48.714;9.414;2023-07-20T14:16:42;3.30;;;1.50;;
41263;SDS011;26998;48.714;9.414;2023-07-20T14:19:09;3.72;;;1.55;;
41263;SDS011;26998;48.714;9.414;2023-07-20T14:21:36;2.65;;;2.00;;
41263;SDS011;26998;48.714;9.414;2023-07-20T14:24:04;2.83;;;1.67;;
41263;SDS011;26998;48.714;9.414;2023-07-20T14:26:35;2.85;;;1.77;;
41263;SDS011;26998;48.714;9.414;2023-07-20T14:29:02;2.67;;;1.38;;
41263;SDS011;26998;48.714;9.414;2023-07-20T14:31:28;1.42;;;1.25;;
41263;SDS011;26998;48.714;9.414;2023-07-20T14:33:55;4.32;;;2.10;;
41263;SDS011;26998;48.714;9.414;2023-07-20T14:36:21;2.72;;;1.83;;
41263;SDS011;26998;48.714;9.414;2023-07-20T14:38:51;3.47;;;1.97;;
41263;SDS011;26998;48.714;9.414;2023-07-20T14:41:19;2.38;;;1.70;;
41263;SDS011;26998;48.714;9.414;2023-07-20T14:43:45;1.95;;;1.33;;
41263;SDS011;26998;48.714;9.414;2023-07-20T14:46:12;3.50;;;1.65;;
41263;SDS011;26998;48.714;9.414;2023-07-20T14:48:38;2.60;;;1.20;;
41263;SDS011;26998;48.714;9.414;2023-07-20T14:51:05;2.10;;;1.48;;
41263;SDS011;26998;48.714;9.414;2023-07-20T14:53:32;1.67;;;1.58;;
41263;SDS011;26998;48.714;9.414;2023-07-20T14:58:29;1.83;;;1.20;;
41263;SDS011;26998;48.714;9.414;2023-07-20T15:00:59;5.38;;;1.70;;
41263;SDS011;26998;48.714;9.414;2023-07-20T15:03:27;3.10;;;1.73;;
41263;SDS011;26998;48.714;9.414;2023-07-20T15:05:54;4.32;;;1.48;;
41263;SDS011;26998;48.714;9.414;2023-07-20T15:08:20;2.97;;;1.52;;
41263;SDS011;26998;48.714;9.414;2023-07-20T15:10:47;1.83;;;1.73;;
41263;SDS011;26998;48.714;9.414;2023-07-20T15:13:13;4.07;;;1.83;;
41263;SDS011;26998;48.714;9.414;2023-07-20T15:15:41;4.07;;;3.03;;
41263;SDS011;26998;48.714;9.414;2023-07-20T15:18:07;4.05;;;2.33;;
41263;SDS011;26998;48.714;9.414;2023-07-20T15:20:35;2.80;;;2.28;;